Time;durP1;ratioP1;P1;durP2;ratioP2;P2;SDS_P1;SDS_P2;PMS_P1;PMS_P2;Temp;Humidity;BMP_temperature;BMP_pressure;BME280_temperature;BME280_humidity;BME280_pressure;Samples;Min_cycle;Max_cycle;Signal;HPM_P1;HPM_P2
2022/11/22 00:01:03;;;;;;;1.52;1.42;;;19.60;43.20;;;;;;5114589;28;20484;-11
2022/11/22 00:03:29;;;;;;;1.50;1.40;;;19.60;43.80;;;;;;5114500;28;20056;-11
2022/11/22 00:05:54;;;;;;;1.42;1.33;;;19.60;43.20;;;;;;5114494;28;20410;-11
2022/11/22 00:08:20;;;;;;;1.70;1.60;;;19.70;43.30;;;;;;5114598;28;20086;-11
2022/11/22 00:10:48;;;;;;;1.70;1.60;;;19.60;43.30;;;;;;5114463;28;20483;-11
2022/11/22 00:13:15;;;;;;;1.33;1.23;;;19.70;43.30;;;;;;5114874;28;20059;-11
2022/11/22 00:15:40;;;;;;;1.48;1.38;;;19.70;43.20;;;;;;5114351;28;20552;-11
2022/11/22 00:18:06;;;;;;;1.50;1.40;;;19.70;43.20;;;;;;5114667;28;20055;-11
2022/11/22 00:20:33;;;;;;;1.33;1.23;;;19.70;43.20;;;;;;5114144;28;20046;-11
2022/11/22 00:22:59;;;;;;;1.50;1.40;;;19.70;43.20;;;;;;5114141;28;20047;-11
2022/11/22 00:25:25;;;;;;;1.75;1.48;;;19.70;43.20;;;;;;5114253;28;20055;-11
2022/11/22 00:27:50;;;;;;;1.35;1.25;;;19.70;43.20;;;;;;5114152;28;20062;-12
2022/11/22 00:30:16;;;;;;;1.30;1.20;;;19.70;43.30;;;;;;5114132;28;20039;-11
2022/11/22 00:32:42;;;;;;;1.50;1.40;;;19.70;43.20;;;;;;5114068;28;20142;-11
2022/11/22 00:35:09;;;;;;;1.42;1.23;;;19.70;43.30;;;;;;5114692;28;20075;-11
2022/11/22 00:37:35;;;;;;;1.55;1.40;;;19.70;43.20;;;;;;5112024;28;20120;-11
2022/11/22 00:40:01;;;;;;;1.52;1.42;;;19.70;43.20;;;;;;5113777;28;20059;-11
2022/11/22 00:42:27;;;;;;;1.35;1.25;;;19.70;43.30;;;;;;5113930;28;20047;-11
2022/11/22 00:44:53;;;;;;;1.40;1.30;;;19.70;43.20;;;;;;5113830;28;20564;-11
2022/11/22 00:47:19;;;;;;;1.60;1.50;;;19.70;43.20;;;;;;5113842;28;20491;-11
2022/11/22 00:49:45;;;;;;;1.55;1.45;;;19.70;43.20;;;;;;5094400;28;20063;-11
2022/11/22 00:52:11;;;;;;;1.50;1.40;;;19.70;43.20;;;;;;5113826;28;20454;-11
2022/11/22 00:54:36;;;;;;;2.47;1.90;;;19.70;43.20;;;;;;5095669;28;20151;-11
2022/11/22 00:57:02;;;;;;;1.77;1.50;;;19.70;43.20;;;;;;5113548;28;20499;-11
2022/11/22 00:59:28;;;;;;;1.40;1.30;;;19.60;43.20;;;;;;5113532;28;20198;-11
2022/11/22 01:01:53;;;;;;;2.35;1.30;;;19.60;43.20;;;;;;5113644;28;20052;-11
2022/11/22 01:04:19;;;;;;;1.88;1.23;;;19.70;43.30;;;;;;5113564;28;20499;-11
2022/11/22 01:06:44;;;;;;;1.30;1.20;;;19.60;43.20;;;;;;5113523;28;20065;-11
2022/11/22 01:09:17;;;;;;;1.35;1.25;;;19.70;43.20;;;;;;5113301;28;20384;-11
2022/11/22 01:11:43;;;;;;;2.28;1.75;;;19.60;43.20;;;;;;5113446;28;20052;-11
2022/11/22 01:14:09;;;;;;;1.80;1.48;;;19.70;43.30;;;;;;5113785;28;20097;-11
2022/11/22 01:16:35;;;;;;;2.10;1.90;;;19.70;43.20;;;;;;5113353;28;20051;-11
2022/11/22 01:19:00;;;;;;;1.73;1.55;;;19.60;43.80;;;;;;5113271;28;20047;-11
2022/11/22 01:21:26;;;;;;;1.45;1.35;;;19.60;43.20;;;;;;5111873;28;20377;-11
2022/11/22 01:23:52;;;;;;;1.58;1.48;;;19.60;43.20;;;;;;5113881;28;20074;-11
2022/11/22 01:26:17;;;;;;;1.50;1.40;;;19.60;43.20;;;;;;5113341;28;20082;-11
2022/11/22 01:28:43;;;;;;;1.38;1.17;;;19.60;43.20;;;;;;5113585;28;20142;-11
2022/11/22 01:31:09;;;;;;;1.55;1.45;;;19.60;43.20;;;;;;5113728;28;20048;-11
2022/11/22 01:33:35;;;;;;;2.17;1.20;;;19.60;43.20;;;;;;5113543;28;20383;-11
2022/11/22 01:36:00;;;;;;;1.65;1.30;;;19.70;43.20;;;;;;5113191;28;20093;-11
2022/11/22 01:38:26;;;;;;;1.60;1.42;;;19.60;43.10;;;;;;5113770;28;20109;-11
2022/11/22 01:40:53;;;;;;;1.60;1.50;;;19.60;43.20;;;;;;5112990;28;20499;-11
2022/11/22 01:43:21;;;;;;;1.40;1.27;;;19.70;43.20;;;;;;5113117;28;20388;-11
2022/11/22 01:45:52;;;;;;;1.33;1.23;;;19.70;43.30;;;;;;5112965;28;20059;-12
2022/11/22 01:48:24;;;;;;;;;;;19.70;43.20;;;;;;5113433;28;20051;-11
2022/11/22 01:50:54;;;;;;;1.80;1.48;;;19.60;43.10;;;;;;5113303;28;19922;-11
2022/11/22 01:53:27;;;;;;;1.45;1.35;;;19.60;43.10;;;;;;5113222;28;20060;-11
2022/11/22 01:55:53;;;;;;;1.55;1.40;;;19.70;43.20;;;;;;5113253;28;20437;-11
2022/11/22 01:58:22;;;;;;;1.50;1.40;;;19.70;43.70;;;;;;5113204;28;20492;-11
2022/11/22 02:00:50;;;;;;;1.35;1.23;;;19.60;43.20;;;;;;5112809;28;20070;-11
2022/11/22 02:03:18;;;;;;;1.40;1.23;;;19.70;43.30;;;;;;5113242;28;20143;-11
2022/11/22 02:05:44;;;;;;;1.83;1.42;;;19.60;43.20;;;;;;5112776;28;20064;-11
2022/11/22 02:08:17;;;;;;;1.77;1.67;;;19.70;43.20;;;;;;5112674;28;20407;-12
2022/11/22 02:10:47;;;;;;;1.50;1.40;;;19.60;43.20;;;;;;5113011;28;20043;-11
2022/11/22 02:13:15;;;;;;;1.57;1.40;;;19.60;43.20;;;;;;5112673;28;20052;-11
2022/11/22 02:15:41;;;;;;;1.50;1.40;;;19.60;43.20;;;;;;5112437;28;20498;-11
2022/11/22 02:18:08;;;;;;;1.50;1.30;;;19.60;43.20;;;;;;5112554;28;20243;-11
2022/11/22 02:20:34;;;;;;;1.77;1.30;;;19.60;43.20;;;;;;5114573;28;20051;-11
2022/11/22 02:23:10;;;;;;;1.77;1.58;;;19.60;43.70;;;;;;5116460;28;21042;-11
2022/11/22 02:25:36;;;;;;;1.40;1.17;;;19.60;43.20;;;;;;5116461;28;20058;-11
2022/11/22 02:28:02;;;;;;;1.50;1.20;;;19.60;43.20;;;;;;5115723;28;20051;-12
2022/11/22 02:30:28;;;;;;;1.33;1.23;;;19.60;43.20;;;;;;5116132;28;20097;-11
2022/11/22 02:32:54;;;;;;;1.30;1.20;;;19.60;43.20;;;;;;5116157;28;20139;-11
2022/11/22 02:35:22;;;;;;;1.52;1.42;;;19.60;43.20;;;;;;5116413;28;20112;-11
2022/11/22 02:38:04;;;;;;;1.27;1.17;;;19.60;43.20;;;;;;5115896;28;20574;-11
2022/11/22 02:40:35;;;;;;;1.60;1.50;;;19.60;43.20;;;;;;5116109;28;20046;-11
2022/11/22 02:43:04;;;;;;;1.48;1.30;;;19.60;43.10;;;;;;5115880;28;20075;-11
2022/11/22 02:45:29;;;;;;;1.60;1.50;;;19.60;43.20;;;;;;5115962;28;20058;-11
2022/11/22 02:48:12;;;;;;;1.55;1.45;;;19.60;43.20;;;;;;5115815;28;20059;-11
2022/11/22 02:50:38;;;;;;;1.50;1.25;;;19.60;43.20;;;;;;5115628;28;20093;-11
2022/11/22 02:53:04;;;;;;;1.40;1.30;;;19.60;43.20;;;;;;5116284;28;20051;-11
2022/11/22 02:55:30;;;;;;;1.40;1.30;;;19.60;43.10;;;;;;5115621;28;20048;-11
2022/11/22 02:57:56;;;;;;;1.40;1.30;;;19.60;43.10;;;;;;5115543;28;20044;-11
2022/11/22 03:00:22;;;;;;;1.70;1.60;;;19.60;43.60;;;;;;5115526;28;20090;-11
2022/11/22 03:02:47;;;;;;;1.55;1.10;;;19.60;43.10;;;;;;5115538;28;20419;-11
2022/11/22 03:05:13;;;;;;;1.40;1.30;;;19.60;43.10;;;;;;5115867;28;20124;-11
2022/11/22 03:07:39;;;;;;;1.60;1.50;;;19.60;43.10;;;;;;5115262;28;20075;-11
2022/11/22 03:10:05;;;;;;;1.50;1.40;;;19.70;43.20;;;;;;5115569;28;21436;-11
2022/11/22 03:12:31;;;;;;;1.60;1.50;;;19.70;43.20;;;;;;5115429;28;20039;-11
2022/11/22 03:14:56;;;;;;;1.60;1.50;;;19.70;43.20;;;;;;5115969;28;20051;-11
2022/11/22 03:17:22;;;;;;;2.28;1.23;;;19.70;43.20;;;;;;5115478;28;20403;-12
2022/11/22 03:19:48;;;;;;;1.38;1.27;;;19.60;43.10;;;;;;5115746;28;20066;-11
2022/11/22 03:22:14;;;;;;;1.40;1.30;;;19.70;43.20;;;;;;5115125;28;20056;-11
2022/11/22 03:24:40;;;;;;;1.65;1.48;;;19.70;43.20;;;;;;5115227;28;20066;-11
2022/11/22 03:27:05;;;;;;;1.40;1.30;;;19.70;43.10;;;;;;5115068;28;20056;-11
2022/11/22 03:29:31;;;;;;;1.52;1.42;;;19.60;43.10;;;;;;5115093;28;20062;-11
2022/11/22 03:31:57;;;;;;;1.33;1.23;;;19.60;43.00;;;;;;5113447;28;20050;-11
2022/11/22 03:34:22;;;;;;;1.50;1.40;;;19.70;43.10;;;;;;5115311;28;20048;-11
2022/11/22 03:36:48;;;;;;;1.40;1.30;;;19.60;43.10;;;;;;5114941;28;20054;-11
2022/11/22 03:39:14;;;;;;;2.00;1.40;;;19.60;43.10;;;;;;5115214;28;20055;-11
2022/11/22 03:41:39;;;;;;;1.33;1.23;;;19.60;43.10;;;;;;5096841;28;20479;-11
2022/11/22 03:44:05;;;;;;;1.48;1.38;;;19.60;43.10;;;;;;5115512;28;20448;-11
2022/11/22 03:46:31;;;;;;;1.67;1.42;;;19.60;43.10;;;;;;5114957;28;20502;-11
2022/11/22 03:48:57;;;;;;;1.48;1.38;;;19.60;43.10;;;;;;5114783;28;20102;-11
2022/11/22 03:51:23;;;;;;;1.50;1.20;;;19.60;43.10;;;;;;5114738;28;20067;-11
2022/11/22 03:53:48;;;;;;;1.40;1.30;;;19.60;43.10;;;;;;5114792;28;20429;-11
2022/11/22 03:56:14;;;;;;;1.38;1.27;;;19.60;43.20;;;;;;5114989;28;20066;-11
2022/11/22 03:58:40;;;;;;;1.30;1.20;;;19.60;43.10;;;;;;5114489;28;20051;-11
2022/11/22 04:01:05;;;;;;;1.73;1.60;;;19.60;43.10;;;;;;5114655;28;20146;-11
2022/11/22 04:03:31;;;;;;;1.40;1.30;;;19.60;43.10;;;;;;5115164;28;20090;-11
2022/11/22 04:05:56;;;;;;;1.60;1.38;;;19.60;43.60;;;;;;5114584;28;20082;-11
2022/11/22 04:08:22;;;;;;;1.50;1.40;;;19.60;43.60;;;;;;5114535;28;20058;-11
2022/11/22 04:10:49;;;;;;;1.38;1.27;;;19.60;43.10;;;;;;5114754;28;20407;-11
2022/11/22 04:13:15;;;;;;;1.27;1.17;;;19.60;43.10;;;;;;5114730;28;20142;-11
2022/11/22 04:15:40;;;;;;;1.40;1.30;;;19.60;43.10;;;;;;5114303;28;20139;-11
2022/11/22 04:18:11;;;;;;;1.45;1.35;;;19.60;43.10;;;;;;5114396;28;20050;-11
2022/11/22 04:23:24;;;;;;;1.63;1.50;;;19.60;43.10;;;;;;5114435;28;20043;-11
2022/11/22 04:25:53;;;;;;;1.40;1.30;;;19.60;43.10;;;;;;5114286;28;20048;-11
2022/11/22 04:28:23;;;;;;;1.73;1.63;;;19.60;43.10;;;;;;5114354;28;20054;-11
2022/11/22 04:33:34;;;;;;;1.70;1.60;;;19.70;43.10;;;;;;5114447;28;20051;-11
2022/11/22 04:36:00;;;;;;;1.20;1.10;;;19.60;43.00;;;;;;5114658;28;20059;-11
2022/11/22 04:38:26;;;;;;;1.30;1.20;;;19.60;43.00;;;;;;5113919;28;20490;-11
2022/11/22 04:40:51;;;;;;;1.48;1.38;;;19.60;43.10;;;;;;5113854;28;20054;-11
2022/11/22 04:46:08;;;;;;;1.60;1.50;;;19.60;43.00;;;;;;5114292;28;20036;-11
2022/11/22 04:48:34;;;;;;;1.20;1.10;;;19.60;43.00;;;;;;5113580;28;20047;-11
2022/11/22 04:53:44;;;;;;;1.50;1.40;;;19.60;43.00;;;;;;5114125;28;20043;-11
2022/11/22 04:56:11;;;;;;;1.50;1.40;;;19.60;43.00;;;;;;5113839;28;20415;-11
2022/11/22 04:58:37;;;;;;;1.30;1.20;;;19.60;43.10;;;;;;5113826;28;20062;-11
2022/11/22 05:01:03;;;;;;;1.40;1.30;;;19.60;43.00;;;;;;5113605;28;20131;-11
2022/11/22 05:03:28;;;;;;;1.40;1.30;;;19.60;43.00;;;;;;5113753;28;20105;-11
2022/11/22 05:05:54;;;;;;;1.40;1.30;;;19.60;43.00;;;;;;5113614;28;20054;-11
2022/11/22 05:08:20;;;;;;;1.27;1.17;;;19.60;43.00;;;;;;5113320;28;20161;-11
2022/11/22 05:10:56;;;;;;;1.60;1.50;;;19.60;43.00;;;;;;5113546;28;20483;-11
2022/11/22 05:13:43;;;;;;;1.67;1.30;;;19.60;43.00;;;;;;5113458;28;20167;-11
2022/11/22 05:16:12;;;;;;;1.30;1.20;;;19.60;43.00;;;;;;5113601;28;20066;-12
2022/11/22 05:18:38;;;;;;;1.35;1.25;;;19.60;43.10;;;;;;5113701;28;20475;-11
2022/11/22 05:21:09;;;;;;;2.13;1.40;;;19.60;43.00;;;;;;5113239;28;20384;-11
2022/11/22 05:23:53;;;;;;;1.40;1.30;;;19.60;43.10;;;;;;5113349;28;20051;-11
2022/11/22 05:26:24;;;;;;;1.40;1.30;;;19.60;43.10;;;;;;5113354;28;20094;-11
2022/11/22 05:28:49;;;;;;;0.85;0.85;;;19.60;43.10;;;;;;5113214;28;20552;-11
2022/11/22 05:31:21;;;;;;;1.40;1.30;;;19.60;43.00;;;;;;5113565;28;20055;-11
2022/11/22 05:33:48;;;;;;;1.25;1.15;;;19.60;43.00;;;;;;5113290;28;20079;-11
2022/11/22 05:36:14;;;;;;;1.27;1.20;;;19.60;43.00;;;;;;5113275;28;20056;-11
2022/11/22 05:38:40;;;;;;;1.40;1.30;;;19.60;43.50;;;;;;5113059;28;20123;-11
2022/11/22 05:41:09;;;;;;;1.70;1.30;;;19.60;43.00;;;;;;5113081;28;20138;-11
2022/11/22 05:43:35;;;;;;;1.60;1.50;;;19.60;43.00;;;;;;5113068;28;20100;-11
2022/11/22 05:46:21;;;;;;;1.50;1.40;;;19.60;42.90;;;;;;5113529;28;20051;-11
2022/11/22 05:48:47;;;;;;;1.88;1.70;;;19.60;43.00;;;;;;5108529;28;20052;-11
2022/11/22 05:51:15;;;;;;;1.70;1.60;;;19.60;43.10;;;;;;5113344;28;20043;-11
2022/11/22 05:53:42;;;;;;;1.25;1.15;;;19.60;43.00;;;;;;5113232;28;20396;-11
2022/11/22 05:56:13;;;;;;;1.52;1.40;;;19.60;43.00;;;;;;5116134;28;20051;-12
2022/11/22 05:58:39;;;;;;;1.35;1.25;;;19.60;43.00;;;;;;5116619;28;20062;-11
2022/11/22 06:01:06;;;;;;;1.60;1.50;;;19.60;43.00;;;;;;5116466;28;20414;-11
2022/11/22 06:03:33;;;;;;;1.67;1.58;;;19.60;43.00;;;;;;5116820;28;20055;-11
2022/11/22 06:05:59;;;;;;;1.40;1.30;;;19.60;43.00;;;;;;5116232;28;20563;-11
2022/11/22 06:08:24;;;;;;;1.65;1.55;;;19.60;43.00;;;;;;5116371;28;20075;-11
2022/11/22 06:10:50;;;;;;;1.30;1.20;;;19.60;43.00;;;;;;5116325;28;20086;-11
2022/11/22 06:13:16;;;;;;;1.73;1.42;;;19.60;43.00;;;;;;5116354;28;20403;-11
2022/11/22 06:15:41;;;;;;;1.50;1.40;;;19.60;43.00;;;;;;5116063;28;20078;-11
2022/11/22 06:18:07;;;;;;;1.67;1.30;;;19.60;43.00;;;;;;5116536;28;20076;-11
2022/11/22 06:20:33;;;;;;;1.25;1.15;;;19.60;43.00;;;;;;5111963;28;20040;-11
2022/11/22 06:22:58;;;;;;;1.83;1.42;;;19.60;43.00;;;;;;5116420;28;20081;-11
2022/11/22 06:25:24;;;;;;;1.55;1.38;;;19.60;43.00;;;;;;5116153;28;20043;-11
2022/11/22 06:27:50;;;;;;;1.50;1.40;;;19.60;43.00;;;;;;5116068;28;20051;-11
2022/11/22 06:30:16;;;;;;;1.40;1.30;;;19.60;43.60;;;;;;5115926;28;20048;-11
2022/11/22 06:32:41;;;;;;;1.52;1.42;;;19.60;43.10;;;;;;5116050;28;20495;-11
2022/11/22 06:35:08;;;;;;;1.50;1.38;;;19.60;43.00;;;;;;5115970;28;20058;-11
2022/11/22 06:37:34;;;;;;;1.25;1.15;;;19.60;43.00;;;;;;5115941;28;20077;-11
2022/11/22 06:39:59;;;;;;;1.88;1.70;;;19.60;43.00;;;;;;5115765;28;20055;-11
2022/11/22 06:42:25;;;;;;;1.17;1.10;;;19.60;43.00;;;;;;5116473;28;20051;-11
2022/11/22 06:44:51;;;;;;;1.50;1.40;;;19.60;43.00;;;;;;5116419;28;20097;-11
2022/11/22 06:47:17;;;;;;;2.03;1.50;;;19.60;43.10;;;;;;5115766;28;20051;-11
2022/11/22 06:49:44;;;;;;;1.40;1.30;;;19.60;43.00;;;;;;5115591;28;20043;-11
2022/11/22 06:52:11;;;;;;;1.67;1.58;;;19.60;43.10;;;;;;5115478;28;20052;-11
2022/11/22 06:54:36;;;;;;;1.50;1.30;;;19.60;43.00;;;;;;5111449;28;20560;-11
2022/11/22 06:57:02;;;;;;;2.17;1.98;;;19.60;43.00;;;;;;5115435;28;20047;-11
2022/11/22 06:59:28;;;;;;;1.40;1.30;;;19.60;43.00;;;;;;5115534;28;20079;-11
2022/11/22 07:01:53;;;;;;;1.77;1.50;;;19.60;42.90;;;;;;5095190;28;20572;-11
2022/11/22 07:04:19;;;;;;;1.40;1.30;;;19.60;42.90;;;;;;5115854;28;20104;-11
2022/11/22 07:06:46;;;;;;;1.63;1.52;;;19.60;42.90;;;;;;5115316;28;20411;-11
2022/11/22 07:09:12;;;;;;;1.45;1.35;;;19.60;43.00;;;;;;5115347;28;20475;-11
2022/11/22 07:11:39;;;;;;;1.45;1.35;;;19.60;42.90;;;;;;5115191;28;20139;-11
2022/11/22 07:14:05;;;;;;;1.50;1.38;;;19.60;42.90;;;;;;5115174;28;20443;-11
2022/11/22 07:16:31;;;;;;;1.40;1.30;;;19.60;42.90;;;;;;5115241;28;20482;-11
2022/11/22 07:18:59;;;;;;;1.08;1.08;;;19.60;42.90;;;;;;5115197;28;20052;-11
2022/11/22 07:21:25;;;;;;;1.30;1.20;;;19.60;42.90;;;;;;5115015;28;20047;-11
2022/11/22 07:23:52;;;;;;;1.40;1.30;;;19.60;42.90;;;;;;5115071;28;20518;-11
2022/11/22 07:26:19;;;;;;;1.65;1.42;;;19.60;42.90;;;;;;5114913;28;20060;-11
2022/11/22 07:28:45;;;;;;;1.30;1.20;;;19.60;42.90;;;;;;5115398;28;20040;-11
2022/11/22 07:31:13;;;;;;;1.63;1.52;;;19.60;42.90;;;;;;5115170;28;20135;-11
2022/11/22 07:33:39;;;;;;;1.52;1.42;;;19.60;42.90;;;;;;5114845;28;20056;-10
2022/11/22 07:36:12;;;;;;;1.52;1.42;;;19.60;42.90;;;;;;5114914;28;20054;-11
2022/11/22 07:38:37;;;;;;;1.25;1.15;;;19.60;42.90;;;;;;5114978;28;20094;-11
2022/11/22 07:41:04;;;;;;;1.27;1.17;;;19.60;42.90;;;;;;5114972;28;20071;-11
2022/11/22 07:43:30;;;;;;;1.20;1.10;;;19.60;42.90;;;;;;5115270;28;20054;-11
2022/11/22 07:46:01;;;;;;;1.65;1.40;;;19.60;42.90;;;;;;5115135;28;20051;-11
2022/11/22 07:48:27;;;;;;;1.30;1.20;;;19.60;42.90;;;;;;5096932;28;20394;-11
2022/11/22 07:50:52;;;;;;;1.35;1.20;;;19.60;42.90;;;;;;5114768;28;20130;-11
2022/11/22 07:53:18;;;;;;;0.93;0.93;;;19.60;42.90;;;;;;5115126;28;20456;-11
2022/11/22 07:55:44;;;;;;;1.63;1.52;;;19.60;42.90;;;;;;5114527;28;20492;-11
2022/11/22 07:58:09;;;;;;;1.55;1.45;;;19.60;42.90;;;;;;5114810;28;20066;-10
2022/11/22 08:00:35;;;;;;;1.48;1.38;;;19.60;42.90;;;;;;5114464;28;20051;-11
2022/11/22 08:03:01;;;;;;;1.50;1.40;;;19.60;43.40;;;;;;5114427;28;20101;-11
2022/11/22 08:05:26;;;;;;;1.33;1.20;;;19.60;42.90;;;;;;5114593;28;20074;-11
2022/11/22 08:07:53;;;;;;;1.77;1.38;;;19.60;42.90;;;;;;5114346;28;20066;-11
2022/11/22 08:10:19;;;;;;;1.15;1.05;;;19.60;42.90;;;;;;5114581;28;20043;-11
2022/11/22 08:12:45;;;;;;;1.50;1.40;;;19.60;42.90;;;;;;5114352;28;20075;-10
2022/11/22 08:15:12;;;;;;;1.27;1.17;;;19.60;42.90;;;;;;5113183;28;20079;-11
2022/11/22 08:17:38;;;;;;;1.38;1.27;;;19.60;42.90;;;;;;5112876;28;20054;-11
2022/11/22 08:20:05;;;;;;;1.50;1.40;;;19.60;42.90;;;;;;5113806;28;20059;-11
2022/11/22 08:22:31;;;;;;;1.42;1.33;;;19.70;42.90;;;;;;5113787;28;20513;-11
2022/11/22 08:24:56;;;;;;;1.75;1.30;;;19.60;42.90;;;;;;5114160;28;20055;-11
2022/11/22 08:27:23;;;;;;;1.40;1.30;;;19.70;43.50;;;;;;5113718;28;20078;-11
2022/11/22 08:29:49;;;;;;;1.60;1.50;;;19.60;42.90;;;;;;5114217;28;20051;-11
2022/11/22 08:32:15;;;;;;;1.50;1.35;;;19.60;42.90;;;;;;5113729;28;20058;-11
2022/11/22 08:34:41;;;;;;;1.45;1.35;;;19.60;42.90;;;;;;5113586;28;20048;-11
2022/11/22 08:37:06;;;;;;;1.75;1.30;;;19.60;42.90;;;;;;5113890;28;20059;-11
2022/11/22 08:39:32;;;;;;;1.30;1.20;;;19.60;42.90;;;;;;5095201;28;20403;-11
2022/11/22 08:41:58;;;;;;;1.60;1.50;;;19.60;43.40;;;;;;5113324;28;20475;-11
2022/11/22 08:44:23;;;;;;;1.52;1.42;;;19.70;42.90;;;;;;5095094;28;20060;-11
2022/11/22 08:46:49;;;;;;;1.42;1.33;;;19.60;42.90;;;;;;5113723;28;20072;-10
2022/11/22 08:49:15;;;;;;;1.30;1.20;;;19.60;43.40;;;;;;5113839;28;20104;-11
2022/11/22 08:51:46;;;;;;;2.30;1.48;;;19.70;43.00;;;;;;5113361;28;20056;-11
2022/11/22 08:54:13;;;;;;;1.50;1.40;;;19.70;42.90;;;;;;5113573;28;20510;-11
2022/11/22 08:56:39;;;;;;;1.42;1.30;;;19.70;42.90;;;;;;5113558;28;20483;-10
2022/11/22 08:59:05;;;;;;;1.35;1.25;;;19.70;42.90;;;;;;5094990;28;20062;-11
2022/11/22 09:01:31;;;;;;;1.60;1.50;;;19.70;43.40;;;;;;5113282;28;20159;-11
2022/11/22 09:03:57;;;;;;;1.40;1.30;;;19.70;42.90;;;;;;5113178;28;20170;-11
2022/11/22 09:06:23;;;;;;;1.30;1.20;;;19.70;42.90;;;;;;5113292;28;20075;-11
2022/11/22 09:08:49;;;;;;;1.40;1.30;;;19.70;42.80;;;;;;5113266;28;20055;-11
2022/11/22 09:11:17;;;;;;;1.52;1.42;;;19.70;42.80;;;;;;5111929;28;20056;-12
2022/11/22 09:13:43;;;;;;;1.45;1.35;;;19.70;42.80;;;;;;5112567;28;20048;-10
2022/11/22 09:16:18;;;;;;;1.27;1.17;;;19.70;42.80;;;;;;5112980;28;20055;-10
2022/11/22 09:18:44;;;;;;;1.50;1.40;;;19.70;42.80;;;;;;5113477;28;20113;-10
2022/11/22 09:21:19;;;;;;;1.45;1.27;;;19.70;42.80;;;;;;5113084;28;20040;-10
2022/11/22 09:23:47;;;;;;;1.30;1.20;;;19.70;42.80;;;;;;5113268;28;20130;-10
2022/11/22 09:26:16;;;;;;;1.73;1.63;;;19.70;42.80;;;;;;5113269;28;20112;-10
2022/11/22 09:28:43;;;;;;;1.40;1.25;;;19.70;42.80;;;;;;5112998;28;20055;-10
2022/11/22 09:31:15;;;;;;;1.58;1.48;;;19.70;42.80;;;;;;5113022;28;20134;-10
2022/11/22 09:33:44;;;;;;;1.40;1.30;;;19.70;42.80;;;;;;5094777;28;20449;-10
2022/11/22 09:36:13;;;;;;;1.65;1.55;;;19.70;42.80;;;;;;5112792;28;20067;-10
2022/11/22 09:38:39;;;;;;;1.33;1.23;;;19.70;42.80;;;;;;5112964;28;20093;-10
2022/11/22 09:41:30;;;;;;;1.45;1.35;;;19.70;42.70;;;;;;5113109;28;20047;-9
2022/11/22 09:44:35;;;;;;;1.55;1.45;;;19.70;42.80;;;;;;5113122;28;20044;-10
2022/11/22 09:47:22;;;;;;;1.42;1.30;;;19.70;42.80;;;;;;5112824;28;20136;-10
2022/11/22 09:50:01;;;;;;;1.70;1.60;;;19.60;42.80;;;;;;5112778;28;20483;-10
2022/11/22 09:52:38;;;;;;;1.40;1.30;;;19.70;42.80;;;;;;5113045;28;20479;-10
2022/11/22 09:55:12;;;;;;;1.50;1.40;;;19.60;42.70;;;;;;5112569;28;20043;-9
2022/11/22 09:57:48;;;;;;;1.13;1.02;;;19.70;42.80;;;;;;5112729;28;20048;-10
2022/11/22 10:00:21;;;;;;;1.20;1.10;;;19.70;42.80;;;;;;5112500;28;20093;-11
2022/11/22 10:03:03;;;;;;;1.75;1.65;;;19.70;42.80;;;;;;5113177;28;20050;-11
2022/11/22 10:05:37;;;;;;;2.53;2.10;;;19.70;42.00;;;;;;5111974;28;20097;-11
2022/11/22 10:08:30;;;;;;;3.85;2.15;;;19.60;41.10;;;;;;5112483;28;20083;-10
2022/11/22 10:10:58;;;;;;;3.22;2.15;;;19.60;40.60;;;;;;5059850;28;20043;-11
2022/11/22 10:13:33;;;;;;;3.00;2.20;;;19.60;40.40;;;;;;5093671;28;20134;-10
2022/11/22 10:16:21;;;;;;;2.40;2.20;;;19.60;40.30;;;;;;5112672;28;20468;-11
2022/11/22 10:18:52;;;;;;;2.55;2.20;;;19.60;40.30;;;;;;5111990;28;20407;-10
2022/11/22 10:21:18;;;;;;;2.50;2.20;;;19.60;40.20;;;;;;5111943;28;20043;-10
2022/11/22 10:23:46;;;;;;;2.97;2.38;;;19.60;40.30;;;;;;5110259;28;20076;-11
2022/11/22 10:26:27;;;;;;;2.97;2.53;;;19.60;40.70;;;;;;5110400;28;20171;-11
2022/11/22 10:29:30;;;;;;;3.60;2.75;;;19.60;40.30;;;;;;5111054;28;20136;-11
2022/11/22 10:32:16;;;;;;;3.00;2.65;;;19.60;40.30;;;;;;5112011;28;20055;-11
2022/11/22 10:35:05;;;;;;;3.30;2.40;;;19.60;40.30;;;;;;5111519;28;20051;-11
2022/11/22 10:37:55;;;;;;;2.85;2.50;;;19.60;40.30;;;;;;5112618;28;20074;-11
2022/11/22 10:40:36;;;;;;;2.83;2.42;;;19.60;40.30;;;;;;5112480;28;20051;-10
2022/11/22 10:43:11;;;;;;;3.35;2.58;;;19.60;40.30;;;;;;5097920;28;20055;-11
2022/11/22 10:45:48;;;;;;;3.03;2.72;;;19.60;40.30;;;;;;5115902;28;20055;-11
2022/11/22 10:48:29;;;;;;;4.50;2.70;;;19.60;40.30;;;;;;5115610;28;20130;-12
2022/11/22 10:51:10;;;;;;;3.17;2.20;;;19.60;40.30;;;;;;5116103;28;20039;-11
2022/11/22 10:54:13;;;;;;;3.03;2.63;;;19.60;40.40;;;;;;5115694;28;20051;-11
2022/11/22 10:56:45;;;;;;;3.78;2.67;;;19.60;40.40;;;;;;5116086;28;20296;-11
2022/11/22 10:59:22;;;;;;;2.95;2.65;;;19.60;40.40;;;;;;5115866;28;20075;-11
2022/11/22 11:02:19;;;;;;;2.78;2.25;;;19.60;40.40;;;;;;5115375;28;20065;-11
2022/11/22 11:04:45;;;;;;;2.70;2.50;;;19.60;40.40;;;;;;5115542;28;20446;-11
2022/11/22 11:07:16;;;;;;;3.08;2.50;;;19.60;40.40;;;;;;5114751;28;20044;-11
2022/11/22 11:09:47;;;;;;;4.33;2.47;;;19.60;40.40;;;;;;5115569;28;20046;-11
2022/11/22 11:12:16;;;;;;;;;;;19.60;40.40;;;;;;5115020;28;20475;-10
2022/11/22 11:14:50;;;;;;;4.55;2.58;;;19.60;40.40;;;;;;5115248;28;19916;-11
2022/11/22 11:17:22;;;;;;;2.65;2.45;;;19.60;40.40;;;;;;5115138;28;20055;-11
2022/11/22 11:19:48;;;;;;;;;;;19.60;40.40;;;;;;5115544;28;20452;-11
2022/11/22 11:22:20;;;;;;;3.40;2.83;;;19.60;40.40;;;;;;5115133;28;19923;-11
2022/11/22 11:24:47;;;;;;;3.25;2.40;;;19.60;40.40;;;;;;5115089;28;20067;-11
2022/11/22 11:27:16;;;;;;;3.38;2.58;;;19.60;41.00;;;;;;5114809;28;20141;-11
2022/11/22 11:29:45;;;;;;;2.85;2.40;;;19.60;40.50;;;;;;5115028;28;20047;-11
2022/11/22 11:32:18;;;;;;;4.43;2.53;;;19.60;40.40;;;;;;5115593;28;20090;-11
2022/11/22 11:35:06;;;;;;;6.68;2.95;;;19.60;40.70;;;;;;5115114;28;20048;-11
2022/11/22 11:37:35;;;;;;;3.25;2.50;;;19.60;40.60;;;;;;5114734;28;20051;-11
2022/11/22 11:40:05;;;;;;;3.03;2.65;;;19.60;40.50;;;;;;5114865;28;20052;-11
2022/11/22 11:42:33;;;;;;;5.68;2.47;;;19.60;40.70;;;;;;5115203;28;20055;-11
2022/11/22 11:45:19;;;;;;;6.40;2.35;;;19.70;40.70;;;;;;5115463;28;20052;-11
2022/11/22 11:47:45;;;;;;;6.05;3.15;;;19.70;40.40;;;;;;5095232;28;20051;-11
2022/11/22 11:50:20;;;;;;;3.65;2.67;;;19.70;40.30;;;;;;5114687;28;20051;-11
2022/11/22 11:52:54;;;;;;;4.57;2.72;;;19.80;40.20;;;;;;5113754;28;20043;-11
2022/11/22 11:55:20;;;;;;;7.45;2.67;;;19.80;40.50;;;;;;5114578;28;20488;-12
2022/11/22 11:57:48;;;;;;;5.43;3.22;;;19.80;40.50;;;;;;5114600;28;20044;-11
2022/11/22 12:00:25;;;;;;;3.33;2.80;;;19.80;40.50;;;;;;5114385;28;20048;-11
2022/11/22 12:03:00;;;;;;;3.72;2.95;;;19.80;40.20;;;;;;5114801;28;20051;-12
2022/11/22 12:05:31;;;;;;;6.68;3.22;;;19.90;40.40;;;;;;5114259;28;20052;-12
2022/11/22 12:07:57;;;;;;;6.65;2.88;;;19.90;40.40;;;;;;5114839;28;20384;-12
2022/11/22 12:10:29;;;;;;;5.55;2.90;;;19.90;40.20;;;;;;5114184;28;20059;-12
2022/11/22 12:13:16;;;;;;;5.47;3.22;;;19.90;40.30;;;;;;5114491;28;20051;-13
2022/11/22 12:16:15;;;;;;;4.85;3.45;;;20.00;40.30;;;;;;5113895;28;20414;-12
2022/11/22 12:19:10;;;;;;;8.57;3.55;;;20.00;40.30;;;;;;5114291;28;20415;-12
2022/11/22 12:22:10;;;;;;;4.93;3.15;;;20.00;40.40;;;;;;5113959;28;20048;-11
2022/11/22 12:25:02;;;;;;;7.95;4.10;;;20.00;40.20;;;;;;5113785;28;20053;-11
2022/11/22 12:27:30;;;;;;;8.25;3.25;;;20.00;40.10;;;;;;5113614;28;20056;-11
2022/11/22 12:29:57;;;;;;;5.43;3.55;;;20.00;40.10;;;;;;5114214;28;20105;-11
2022/11/22 12:32:29;;;;;;;33.92;8.07;;;20.00;40.20;;;;;;5114032;28;20138;-11
2022/11/22 12:35:04;;;;;;;10.70;4.80;;;20.00;40.30;;;;;;5113938;28;20066;-11
2022/11/22 12:37:53;;;;;;;27.98;6.70;;;20.00;40.20;;;;;;5095593;28;20055;-11
2022/11/22 12:40:38;;;;;;;20.58;6.30;;;20.00;40.10;;;;;;5113707;28;20077;-11
2022/11/22 12:43:13;;;;;;;17.90;5.93;;;20.10;40.20;;;;;;5113940;28;20051;-11
2022/11/22 12:45:43;;;;;;;25.33;7.53;;;20.00;40.10;;;;;;5113714;28;20047;-11
2022/11/22 12:48:27;;;;;;;15.15;5.38;;;20.10;40.90;;;;;;5113720;28;20055;-11
2022/11/22 12:50:57;;;;;;;16.30;6.07;;;20.10;40.30;;;;;;5113839;28;20100;-11
2022/11/22 12:53:38;;;;;;;18.10;6.32;;;20.10;40.20;;;;;;5114009;28;20075;-11
2022/11/22 12:56:15;;;;;;;14.33;4.13;;;20.10;40.40;;;;;;5113985;28;20483;-11
2022/11/22 12:58:59;;;;;;;70.63;17.77;;;20.10;40.30;;;;;;5111392;28;20045;-11
2022/11/22 13:01:36;;;;;;;27.10;7.72;;;20.10;40.20;;;;;;5113376;28;20117;-11
2022/11/22 13:04:08;;;;;;;293.77;37.40;;;20.10;40.10;;;;;;5113635;28;20066;-11
2022/11/22 13:06:46;;;;;;;93.38;15.77;;;20.00;40.40;;;;;;5113377;28;20100;-11
2022/11/22 13:09:35;;;;;;;74.22;13.38;;;20.00;40.40;;;;;;5113317;28;20139;-11
2022/11/22 13:12:14;;;;;;;62.70;10.45;;;20.10;41.00;;;;;;5113558;28;20056;-11